createdAt,value
2023-04-27T00:03:39.970Z,99.90
2023-04-27T00:06:12.290Z,99.90
2023-04-27T00:11:17.148Z,99.90
2023-04-27T00:13:49.612Z,99.90
2023-04-27T00:16:21.611Z,99.90
2023-04-27T00:18:54.233Z,99.90
2023-04-27T00:23:59.421Z,99.90
2023-04-27T00:29:05.152Z,99.90
2023-04-27T00:31:37.134Z,99.90
2023-04-27T00:36:41.950Z,99.90
2023-04-27T00:39:14.668Z,99.90
2023-04-27T00:41:46.793Z,99.90
2023-04-27T00:44:26.489Z,99.90
2023-04-27T00:46:58.949Z,99.90
2023-04-27T00:52:04.141Z,99.90
2023-04-27T00:54:36.589Z,99.90
2023-04-27T00:57:09.054Z,99.90
2023-04-27T00:59:41.630Z,99.90
2023-04-27T01:02:14.086Z,99.90
2023-04-27T01:04:46.557Z,99.90
2023-04-27T01:07:18.896Z,99.90
2023-04-27T01:09:51.521Z,99.90
2023-04-27T01:12:23.526Z,99.90
2023-04-27T01:17:28.399Z,99.90
2023-04-27T01:22:34.598Z,99.90
2023-04-27T01:25:08.332Z,99.90
2023-04-27T01:35:18.676Z,99.90
2023-04-27T01:37:51.408Z,99.90
2023-04-27T01:40:23.637Z,99.90
2023-04-27T01:42:56.090Z,99.90
2023-04-27T01:45:28.507Z,99.90
2023-04-27T01:53:06.151Z,99.90
2023-04-27T01:55:38.879Z,99.90
2023-04-27T01:58:10.820Z,99.90
2023-04-27T02:00:45.815Z,99.90
2023-04-27T02:05:50.795Z,99.90
2023-04-27T02:08:24.829Z,99.90
2023-04-27T02:10:58.017Z,99.90
2023-04-27T02:13:29.882Z,99.90
2023-04-27T02:16:04.641Z,99.90
2023-04-27T02:18:37.034Z,99.90
2023-04-27T02:26:22.489Z,99.90
2023-04-27T02:28:54.814Z,99.90
2023-04-27T02:33:59.883Z,99.90
2023-04-27T02:36:32.763Z,99.90
2023-04-27T02:39:05.640Z,99.90
2023-04-27T02:41:37.664Z,99.90
2023-04-27T02:44:11.057Z,99.90
2023-04-27T02:46:43.001Z,99.90
2023-04-27T02:49:17.147Z,99.90
2023-04-27T02:51:49.052Z,99.90
2023-04-27T02:56:55.036Z,99.90
2023-04-27T02:59:48.698Z,99.90
2023-04-27T03:02:21.215Z,99.90
2023-04-27T03:04:54.916Z,99.90
2023-04-27T03:07:27.672Z,99.90
2023-04-27T03:10:18.417Z,99.90
2023-04-27T03:12:51.376Z,99.90
2023-04-27T03:15:23.243Z,99.90
2023-04-27T03:20:28.778Z,99.90
2023-04-27T03:23:01.756Z,99.90
2023-04-27T03:28:06.670Z,99.90
2023-04-27T03:30:41.621Z,99.90
2023-04-27T03:33:14.643Z,99.90
2023-04-27T03:35:56.539Z,99.90
2023-04-27T03:38:29.062Z,99.90
2023-04-27T03:41:01.965Z,99.90
2023-04-27T03:43:34.297Z,99.90
2023-04-27T03:48:43.895Z,99.90
2023-04-27T03:51:16.728Z,99.90
2023-04-27T03:53:50.988Z,99.90
2023-04-27T03:56:24.182Z,99.90
2023-04-27T04:04:10.366Z,99.90
2023-04-27T04:09:17.130Z,99.90
2023-04-27T04:11:49.877Z,99.90
2023-04-27T04:19:28.021Z,99.90
2023-04-27T04:22:00.429Z,99.90
2023-04-27T04:24:32.353Z,99.90
2023-04-27T04:29:39.865Z,99.90
2023-04-27T04:34:53.072Z,99.90
2023-04-27T04:40:00.174Z,99.90
2023-04-27T04:42:37.630Z,99.90
2023-04-27T04:45:10.874Z,99.90
2023-04-27T04:48:03.127Z,99.90
2023-04-27T04:50:35.060Z,99.90
2023-04-27T04:53:08.126Z,99.90
2023-04-27T04:55:40.990Z,99.90
2023-04-27T05:03:21.730Z,99.90
2023-04-27T05:05:53.794Z,99.90
2023-04-27T05:13:32.732Z,99.90
2023-04-27T05:16:08.466Z,99.90
2023-04-27T05:18:42.159Z,99.90
2023-04-27T05:21:20.683Z,99.90
2023-04-27T05:23:53.481Z,99.90
2023-04-27T05:26:25.379Z,99.90
2023-04-27T05:28:58.112Z,99.90
2023-04-27T05:31:30.102Z,99.90
2023-04-27T05:34:03.139Z,99.90
2023-04-27T05:41:42.439Z,99.90
2023-04-27T05:46:48.082Z,99.90
2023-04-27T05:49:21.094Z,99.90
2023-04-27T05:51:53.573Z,99.90
2023-04-27T05:57:00.146Z,99.90
2023-04-27T06:04:59.653Z,99.90
2023-04-27T06:07:34.683Z,99.90
2023-04-27T06:10:08.245Z,99.90
2023-04-27T06:15:13.805Z,99.90
2023-04-27T06:33:28.786Z,99.90
2023-04-27T06:36:02.720Z,99.90
2023-04-27T06:38:34.695Z,99.90
2023-04-27T06:41:08.518Z,99.90
2023-04-27T06:43:40.482Z,99.90
2023-04-27T06:51:21.272Z,99.90
2023-04-27T06:53:56.663Z,99.90
2023-04-27T06:59:03.571Z,99.90
2023-04-27T07:04:10.523Z,99.90
2023-04-27T07:06:45.533Z,99.90
2023-04-27T07:12:02.995Z,99.90
2023-04-27T07:14:55.055Z,99.90
2023-04-27T07:17:27.038Z,99.90
2023-04-27T07:20:02.347Z,99.90
2023-04-27T07:22:34.679Z,99.90
2023-04-27T07:25:09.864Z,99.90
2023-04-27T07:27:41.772Z,99.90
2023-04-27T07:32:54.270Z,99.90
2023-04-27T07:38:02.696Z,99.90
2023-04-27T07:40:36.984Z,99.90
2023-04-27T07:43:09.498Z,99.90
2023-04-27T07:45:43.785Z,99.90
2023-04-27T07:48:16.171Z,99.90
2023-04-27T07:50:49.240Z,99.90
2023-04-27T07:53:21.390Z,99.90
2023-04-27T07:55:54.376Z,99.90
2023-04-27T08:01:21.605Z,99.90
2023-04-27T08:03:56.683Z,99.90
2023-04-27T08:11:37.936Z,99.90
2023-04-27T08:14:13.571Z,99.90
2023-04-27T08:16:46.593Z,99.90
2023-04-27T08:19:18.792Z,99.90
2023-04-27T08:21:52.472Z,99.90
2023-04-27T08:24:24.941Z,99.90
2023-04-27T08:26:58.365Z,99.90
2023-04-27T08:29:30.642Z,99.90
2023-04-27T08:32:25.343Z,99.90
2023-04-27T08:34:57.320Z,99.90
2023-04-27T08:37:31.414Z,99.90
2023-04-27T08:40:07.451Z,99.90
2023-04-27T08:42:43.425Z,99.90
2023-04-27T08:47:52.886Z,99.90
2023-04-27T08:53:24.297Z,99.30
2023-04-27T08:58:38.694Z,99.20
2023-04-27T09:01:10.803Z,99.00
2023-04-27T09:03:47.260Z,98.60
2023-04-27T09:06:31.816Z,98.60
2023-04-27T09:09:26.550Z,98.70
2023-04-27T09:11:58.713Z,98.00
2023-04-27T09:14:35.962Z,97.20
2023-04-27T09:17:07.963Z,97.30
2023-04-27T09:20:13.911Z,96.40
2023-04-27T09:22:48.881Z,96.10
2023-04-27T09:28:51.863Z,96.30
2023-04-27T09:31:37.505Z,96.30
2023-04-27T09:34:11.972Z,96.20
2023-04-27T09:37:06.050Z,96.70
2023-04-27T09:39:39.422Z,96.80
2023-04-27T09:42:13.069Z,97.30
2023-04-27T09:44:46.326Z,96.70
2023-04-27T09:47:18.744Z,96.60
2023-04-27T09:49:52.514Z,96.20
2023-04-27T09:52:42.857Z,95.80
2023-04-27T09:55:33.571Z,96.20
2023-04-27T09:58:37.686Z,96.10
2023-04-27T10:01:27.398Z,96.20
2023-04-27T10:04:47.015Z,95.60
2023-04-27T10:07:19.549Z,95.70
2023-04-27T10:09:52.810Z,95.40
2023-04-27T10:12:34.607Z,94.20
2023-04-27T10:15:18.093Z,94.30
2023-04-27T10:17:58.734Z,94.70
2023-04-27T10:20:33.391Z,94.90
2023-04-27T10:23:06.341Z,95.00
2023-04-27T10:25:42.100Z,94.60
2023-04-27T10:28:23.472Z,94.80
2023-04-27T10:30:58.217Z,94.60
2023-04-27T10:33:30.303Z,94.60
2023-04-27T10:38:42.450Z,95.60
2023-04-27T10:41:15.095Z,95.70
2023-04-27T10:43:48.944Z,95.80
2023-04-27T10:46:21.335Z,95.60
2023-04-27T10:48:54.171Z,95.20
2023-04-27T10:51:27.104Z,95.10
2023-04-27T10:54:02.849Z,94.00
2023-04-27T10:59:28.161Z,95.80
2023-04-27T11:02:02.570Z,93.50
2023-04-27T11:04:40.289Z,93.70
2023-04-27T11:07:28.078Z,94.90
2023-04-27T11:10:00.184Z,94.50
2023-04-27T11:12:33.405Z,94.60
2023-04-27T11:15:23.973Z,94.90
2023-04-27T11:18:06.372Z,94.70
2023-04-27T11:20:38.778Z,94.80
2023-04-27T11:23:11.212Z,94.80
2023-04-27T11:28:21.932Z,94.10
2023-04-27T11:31:01.780Z,94.30
2023-04-27T11:33:35.823Z,94.00
2023-04-27T11:36:23.907Z,93.40
2023-04-27T11:39:00.050Z,93.20
2023-04-27T11:41:37.946Z,93.20
2023-04-27T11:44:11.305Z,93.30
2023-04-27T11:46:48.860Z,93.70
2023-04-27T11:49:20.907Z,93.00
2023-04-27T11:51:55.503Z,93.00
2023-04-27T11:54:29.760Z,92.70
2023-04-27T11:57:07.016Z,93.00
2023-04-27T11:59:38.981Z,92.80
2023-04-27T12:02:33.580Z,92.60
2023-04-27T12:05:07.498Z,93.00
2023-04-27T12:07:41.780Z,93.40
2023-04-27T12:12:50.254Z,93.50
2023-04-27T12:17:56.681Z,93.80
2023-04-27T12:23:02.420Z,93.50
2023-04-27T12:33:37.232Z,94.60
2023-04-27T12:36:11.195Z,94.50
2023-04-27T12:38:43.815Z,93.60
2023-04-27T12:43:49.405Z,92.00
2023-04-27T12:46:21.966Z,91.60
2023-04-27T12:48:56.971Z,91.80
2023-04-27T12:54:26.250Z,90.30
2023-04-27T12:56:58.324Z,90.70
2023-04-27T12:59:31.659Z,90.20
2023-04-27T13:02:07.870Z,89.80
2023-04-27T13:04:41.489Z,90.20
2023-04-27T13:07:17.844Z,90.50
2023-04-27T13:09:50.161Z,90.80
2023-04-27T13:12:25.069Z,90.60
2023-04-27T13:14:57.328Z,90.80
2023-04-27T13:17:53.301Z,90.70
2023-04-27T13:23:18.875Z,89.20
2023-04-27T13:25:51.758Z,90.30
2023-04-27T13:28:24.149Z,90.80
2023-04-27T13:30:57.382Z,90.70
2023-04-27T13:33:32.295Z,90.60
2023-04-27T13:36:06.562Z,91.30
2023-04-27T13:38:39.383Z,90.50
2023-04-27T13:41:12.424Z,90.40
2023-04-27T13:43:47.743Z,90.20
2023-04-27T13:48:53.775Z,89.90
2023-04-27T13:51:26.687Z,90.10
2023-04-27T13:53:59.818Z,90.40
2023-04-27T14:01:39.445Z,89.60
2023-04-27T14:04:11.923Z,89.00
2023-04-27T14:06:44.127Z,89.70
2023-04-27T14:09:17.150Z,89.80
2023-04-27T14:11:56.270Z,90.00
2023-04-27T14:17:02.680Z,89.30
2023-04-27T14:19:38.980Z,88.30
2023-04-27T14:22:11.427Z,89.20
2023-04-27T14:24:43.954Z,88.60
2023-04-27T14:27:17.072Z,89.30
2023-04-27T14:29:49.567Z,88.40
2023-04-27T14:32:22.554Z,87.70
2023-04-27T14:34:55.011Z,88.00
2023-04-27T14:37:27.366Z,87.90
2023-04-27T14:40:01.290Z,88.80
2023-04-27T14:42:33.246Z,89.10
2023-04-27T14:45:07.073Z,90.00
2023-04-27T14:47:39.523Z,90.10
2023-04-27T14:52:44.954Z,90.80
2023-04-27T15:00:26.228Z,90.90
2023-04-27T15:03:08.333Z,91.00
2023-04-27T15:05:41.751Z,91.00
2023-04-27T15:08:14.122Z,90.80
2023-04-27T15:10:46.114Z,90.10
2023-04-27T15:15:59.460Z,90.40
2023-04-27T15:18:32.455Z,90.00
2023-04-27T15:21:04.565Z,90.00
2023-04-27T15:23:38.638Z,90.10
2023-04-27T15:31:16.584Z,90.10
2023-04-27T15:33:49.438Z,90.10
2023-04-27T15:36:22.956Z,90.30
2023-04-27T15:38:55.412Z,89.90
2023-04-27T15:41:27.632Z,89.70
2023-04-27T15:46:32.984Z,89.60
2023-04-27T15:54:12.290Z,89.80
2023-04-27T15:56:45.552Z,89.10
2023-04-27T15:59:18.148Z,89.40
2023-04-27T16:01:50.952Z,88.90
2023-04-27T16:04:23.225Z,89.50
2023-04-27T16:06:55.655Z,88.90
2023-04-27T16:17:07.221Z,89.20
2023-04-27T16:19:39.544Z,89.20
2023-04-27T16:22:11.778Z,89.10
2023-04-27T16:24:45.111Z,89.10
2023-04-27T16:27:18.083Z,89.30
2023-04-27T16:32:43.491Z,88.90
2023-04-27T16:37:50.186Z,90.00
2023-04-27T16:40:22.992Z,89.50
2023-04-27T16:42:54.889Z,89.60
2023-04-27T16:45:29.430Z,89.40
2023-04-27T16:48:03.424Z,90.00
2023-04-27T16:50:36.463Z,90.00
2023-04-27T16:53:13.492Z,90.00
2023-04-27T16:55:46.434Z,89.50
2023-04-27T16:58:18.888Z,89.30
2023-04-27T17:00:50.920Z,89.60
2023-04-27T17:08:29.073Z,90.00
2023-04-27T17:11:02.459Z,90.80
2023-04-27T17:13:34.362Z,91.10
2023-04-27T17:16:13.712Z,91.50
2023-04-27T17:18:49.064Z,91.70
2023-04-27T17:21:23.137Z,92.00
2023-04-27T17:23:57.812Z,92.40
2023-04-27T17:26:30.723Z,92.60
2023-04-27T17:29:02.610Z,92.60
2023-04-27T17:31:35.745Z,92.90
2023-04-27T17:34:07.684Z,92.90
2023-04-27T17:39:14.704Z,94.30
2023-04-27T17:41:47.358Z,94.40
2023-04-27T17:44:19.739Z,94.90
2023-04-27T17:46:52.230Z,94.90
2023-04-27T17:49:25.597Z,95.20
2023-04-27T17:51:57.522Z,95.80
2023-04-27T17:54:30.379Z,95.60
2023-04-27T17:57:04.202Z,95.90
2023-04-27T17:59:37.265Z,96.30
2023-04-27T18:04:44.318Z,96.00
2023-04-27T18:07:18.901Z,96.00
2023-04-27T18:12:24.205Z,97.00
2023-04-27T18:14:56.202Z,97.20
2023-04-27T18:17:28.862Z,96.90
2023-04-27T18:20:09.614Z,97.50
2023-04-27T18:22:42.658Z,97.60
2023-04-27T18:25:14.613Z,98.40
2023-04-27T18:30:22.916Z,98.40
2023-04-27T18:35:27.938Z,99.90
2023-04-27T18:38:00.651Z,99.90
2023-04-27T18:40:36.018Z,99.90
2023-04-27T18:43:08.913Z,99.90
2023-04-27T18:48:13.865Z,99.90
2023-04-27T18:50:46.928Z,99.90
2023-04-27T18:53:19.545Z,99.90
2023-04-27T18:55:51.499Z,99.90
2023-04-27T18:58:24.379Z,99.90
2023-04-27T19:03:29.536Z,99.90
2023-04-27T19:06:01.572Z,99.90
2023-04-27T19:08:34.365Z,99.90
2023-04-27T19:11:06.284Z,99.90
2023-04-27T19:13:43.271Z,99.90
2023-04-27T19:16:15.473Z,99.90
2023-04-27T19:18:48.045Z,99.90
2023-04-27T19:21:20.016Z,99.90
2023-04-27T19:26:25.424Z,99.90
2023-04-27T19:28:57.737Z,99.90
2023-04-27T19:31:30.326Z,99.90
2023-04-27T19:34:04.453Z,99.90
2023-04-27T19:36:37.203Z,99.90
2023-04-27T19:39:09.205Z,99.90
2023-04-27T19:44:14.226Z,99.90
2023-04-27T19:46:47.074Z,99.90
2023-04-27T19:49:19.041Z,99.90
2023-04-27T19:51:51.561Z,99.90
2023-04-27T19:54:23.408Z,99.90
2023-04-27T19:59:28.816Z,99.90
2023-04-27T20:02:01.699Z,99.90
2023-04-27T20:04:34.581Z,99.90
2023-04-27T20:09:43.685Z,99.90
2023-04-27T20:12:40.226Z,99.90
2023-04-27T20:15:12.005Z,99.90
2023-04-27T20:17:46.557Z,99.90
2023-04-27T20:25:26.211Z,99.90
2023-04-27T20:27:58.464Z,99.90
2023-04-27T20:30:30.501Z,99.90
2023-04-27T20:35:36.511Z,99.90
2023-04-27T20:38:08.614Z,99.90
2023-04-27T20:40:42.350Z,99.90
2023-04-27T20:43:14.651Z,99.90
2023-04-27T20:45:47.201Z,99.90
2023-04-27T20:48:19.286Z,99.90
2023-04-27T20:53:25.882Z,99.90
2023-04-27T20:55:58.427Z,99.90
2023-04-27T20:58:30.373Z,99.90
2023-04-27T21:03:35.743Z,99.90
2023-04-27T21:08:40.522Z,99.90
2023-04-27T21:11:14.146Z,99.90
2023-04-27T21:13:46.948Z,99.90
2023-04-27T21:16:19.530Z,99.90
2023-04-27T21:18:51.452Z,99.90
2023-04-27T21:21:24.716Z,99.90
2023-04-27T21:24:06.572Z,99.90
2023-04-27T21:29:12.403Z,99.90
2023-04-27T21:31:44.945Z,99.90
2023-04-27T21:34:17.300Z,99.90
2023-04-27T21:36:50.080Z,99.90
2023-04-27T21:39:22.053Z,99.90
2023-04-27T21:41:54.555Z,99.90
2023-04-27T21:44:26.481Z,99.90
2023-04-27T21:46:58.996Z,99.90
2023-04-27T21:49:30.869Z,99.90
2023-04-27T21:52:03.433Z,99.90
2023-04-27T21:54:35.513Z,99.90
2023-04-27T21:57:08.088Z,99.90
2023-04-27T21:59:40.510Z,99.90
2023-04-27T22:02:12.411Z,99.90
2023-04-27T22:04:45.644Z,99.90
2023-04-27T22:07:18.696Z,99.90
2023-04-27T22:09:51.304Z,99.90
2023-04-27T22:14:56.259Z,99.90
2023-04-27T22:20:01.566Z,99.90
2023-04-27T22:25:08.217Z,99.90
2023-04-27T22:27:44.867Z,99.90
2023-04-27T22:30:17.912Z,99.90
2023-04-27T22:32:50.282Z,99.90
2023-04-27T22:35:27.077Z,99.90
2023-04-27T22:38:00.332Z,99.90
2023-04-27T22:40:32.853Z,99.90
2023-04-27T22:43:04.938Z,99.90
2023-04-27T22:45:38.812Z,99.90
2023-04-27T22:48:11.113Z,99.90
2023-04-27T22:50:43.690Z,99.90
2023-04-27T22:53:15.752Z,99.90
2023-04-27T23:00:53.829Z,99.90
2023-04-27T23:03:25.846Z,99.90
2023-04-27T23:06:01.063Z,99.90
2023-04-27T23:11:05.883Z,99.90
2023-04-27T23:13:37.977Z,99.90
2023-04-27T23:16:10.558Z,99.90
2023-04-27T23:18:42.538Z,99.90
2023-04-27T23:21:15.049Z,99.90
2023-04-27T23:23:46.979Z,99.90
2023-04-27T23:26:19.566Z,99.90
2023-04-27T23:28:52.322Z,99.90
2023-04-27T23:31:24.346Z,99.90
2023-04-27T23:33:57.125Z,99.90
2023-04-27T23:36:29.418Z,99.90
2023-04-27T23:44:07.355Z,99.90
2023-04-27T23:49:12.227Z,99.90
2023-04-27T23:54:17.287Z,99.90
2023-04-27T23:56:52.476Z,99.90
2023-04-27T23:59:25.044Z,99.90
